createdAt,value
2023-03-17T00:00:33.618Z,6.00
2023-03-17T00:01:33.589Z,5.98
2023-03-17T00:02:33.596Z,5.96
2023-03-17T00:03:33.610Z,5.96
2023-03-17T00:04:33.577Z,5.95
2023-03-17T00:05:33.554Z,5.95
2023-03-17T00:06:33.528Z,5.93
2023-03-17T00:07:33.507Z,5.96
2023-03-17T00:08:33.543Z,5.95
2023-03-17T00:09:33.479Z,5.96
2023-03-17T00:10:33.513Z,5.96
2023-03-17T00:11:33.472Z,5.95
2023-03-17T00:12:33.490Z,5.95
2023-03-17T00:13:33.426Z,5.93
2023-03-17T00:14:33.484Z,5.96
2023-03-17T00:15:33.445Z,5.95
2023-03-17T00:16:34.883Z,5.96
2023-03-17T00:17:33.410Z,5.96
2023-03-17T00:18:33.468Z,5.93
2023-03-17T00:19:33.357Z,5.93
2023-03-17T00:20:33.396Z,5.95
2023-03-17T00:21:33.359Z,5.93
2023-03-17T00:22:33.363Z,5.95
2023-03-17T00:23:33.572Z,5.96
2023-03-17T00:24:33.370Z,5.95
2023-03-17T00:25:33.298Z,5.98
2023-03-17T00:26:33.314Z,5.96
2023-03-17T00:27:33.283Z,5.96
2023-03-17T00:28:33.321Z,5.96
2023-03-17T00:29:33.263Z,5.96
2023-03-17T00:30:33.299Z,5.96
2023-03-17T00:31:33.258Z,5.95
2023-03-17T00:32:33.277Z,5.98
2023-03-17T00:33:33.326Z,5.98
2023-03-17T00:34:33.523Z,5.96
2023-03-17T00:35:33.274Z,5.96
2023-03-17T00:36:33.253Z,6.00
2023-03-17T00:37:33.170Z,5.98
2023-03-17T00:38:33.186Z,6.00
2023-03-17T00:39:33.154Z,5.98
2023-03-17T00:40:33.192Z,6.01
2023-03-17T00:41:33.202Z,5.98
2023-03-17T00:42:33.130Z,5.98
2023-03-17T00:43:33.113Z,5.98
2023-03-17T00:44:33.134Z,6.00
2023-03-17T00:45:33.176Z,5.96
2023-03-17T00:46:34.633Z,5.98
2023-03-17T00:47:33.033Z,5.98
2023-03-17T00:48:33.060Z,5.96
2023-03-17T00:49:33.060Z,5.96
2023-03-17T00:50:33.042Z,5.93
2023-03-17T00:51:33.024Z,5.93
2023-03-17T00:52:33.016Z,5.93
2023-03-17T00:53:33.029Z,5.93
2023-03-17T00:54:32.962Z,5.92
2023-03-17T00:55:33.021Z,5.93
2023-03-17T00:56:32.975Z,5.91
2023-03-17T00:57:32.981Z,5.92
2023-03-17T00:58:32.931Z,5.92
2023-03-17T00:59:32.956Z,5.92
2023-03-17T01:00:33.332Z,5.91
2023-03-17T01:01:32.926Z,5.91
2023-03-17T01:02:32.919Z,5.92
2023-03-17T01:03:32.893Z,5.91
2023-03-17T01:04:32.910Z,5.89
2023-03-17T01:05:32.889Z,5.92
2023-03-17T01:06:32.835Z,5.91
2023-03-17T01:07:32.855Z,5.92
2023-03-17T01:08:32.808Z,5.89
2023-03-17T01:09:32.818Z,5.92
2023-03-17T01:10:32.819Z,5.89
2023-03-17T01:11:32.825Z,5.91
2023-03-17T01:12:32.770Z,5.92
2023-03-17T01:13:32.778Z,5.92
2023-03-17T01:14:32.810Z,5.92
2023-03-17T01:15:32.804Z,5.92
2023-03-17T01:16:32.800Z,5.93
2023-03-17T01:17:32.800Z,5.93
2023-03-17T01:18:32.799Z,5.93
2023-03-17T01:19:32.727Z,5.93
2023-03-17T01:20:32.696Z,5.96
2023-03-17T01:21:32.899Z,5.93
2023-03-17T01:22:32.781Z,5.96
2023-03-17T01:23:32.693Z,5.95
2023-03-17T01:24:32.679Z,5.93
2023-03-17T01:25:32.655Z,5.92
2023-03-17T01:26:32.620Z,5.91
2023-03-17T01:27:32.614Z,5.93
2023-03-17T01:28:32.595Z,5.92
2023-03-17T01:29:32.623Z,5.92
2023-03-17T01:30:32.756Z,5.92
2023-03-17T01:31:32.602Z,5.92
2023-03-17T01:32:32.570Z,5.93
2023-03-17T01:33:32.602Z,5.93
2023-03-17T01:34:32.540Z,5.93
2023-03-17T01:35:32.578Z,5.93
2023-03-17T01:36:32.495Z,5.93
2023-03-17T01:37:32.584Z,5.96
2023-03-17T01:38:32.558Z,5.98
2023-03-17T01:39:32.494Z,5.96
2023-03-17T01:40:32.950Z,5.98
2023-03-17T01:41:32.657Z,6.00
2023-03-17T01:42:32.469Z,6.00
2023-03-17T01:43:32.448Z,6.03
2023-03-17T01:44:32.425Z,6.03
2023-03-17T01:45:32.710Z,6.04
2023-03-17T01:46:32.482Z,6.04
2023-03-17T01:47:32.416Z,6.04
2023-03-17T01:48:32.373Z,6.04
2023-03-17T01:49:32.388Z,6.07
2023-03-17T01:50:32.371Z,6.07
2023-03-17T01:51:32.414Z,6.09
2023-03-17T01:52:32.338Z,6.06
2023-03-17T01:53:32.362Z,6.07
2023-03-17T01:54:32.331Z,6.06
2023-03-17T01:55:32.322Z,6.06
2023-03-17T01:56:32.304Z,6.06
2023-03-17T01:57:32.281Z,6.06
2023-03-17T01:58:32.260Z,6.06
2023-03-17T01:59:32.351Z,6.06
2023-03-17T02:00:41.497Z,6.06
2023-03-17T02:01:32.245Z,6.01
2023-03-17T02:02:32.216Z,6.01
2023-03-17T02:03:32.210Z,6.00
2023-03-17T02:04:32.319Z,6.00
2023-03-17T02:05:32.227Z,6.01
2023-03-17T02:06:32.179Z,6.03
2023-03-17T02:07:32.218Z,6.01
2023-03-17T02:08:32.145Z,6.00
2023-03-17T02:09:32.172Z,6.01
2023-03-17T02:10:32.556Z,6.01
2023-03-17T02:11:32.170Z,6.01
2023-03-17T02:12:32.119Z,6.03
2023-03-17T02:13:32.141Z,6.01
2023-03-17T02:14:32.088Z,6.03
2023-03-17T02:15:32.102Z,6.00
2023-03-17T02:16:32.109Z,6.00
2023-03-17T02:17:32.088Z,6.00
2023-03-17T02:18:32.032Z,6.01
2023-03-17T02:19:32.080Z,6.00
2023-03-17T02:20:32.519Z,6.00
2023-03-17T02:21:32.024Z,6.00
2023-03-17T02:22:32.003Z,6.00
2023-03-17T02:23:31.994Z,5.98
2023-03-17T02:24:31.967Z,5.96
2023-03-17T02:25:32.006Z,5.96
2023-03-17T02:26:31.944Z,5.98
2023-03-17T02:27:31.959Z,5.96
2023-03-17T02:28:31.931Z,5.96
2023-03-17T02:29:31.933Z,5.98
2023-03-17T02:30:32.163Z,5.96
2023-03-17T02:31:31.907Z,5.96
2023-03-17T02:32:31.914Z,5.98
2023-03-17T02:33:31.925Z,5.98
2023-03-17T02:34:31.852Z,5.98
2023-03-17T02:35:31.998Z,5.98
2023-03-17T02:36:31.905Z,6.00
2023-03-17T02:37:31.853Z,6.01
2023-03-17T02:38:31.824Z,6.00
2023-03-17T02:39:31.846Z,6.00
2023-03-17T02:40:32.151Z,5.95
2023-03-17T02:41:31.801Z,5.96
2023-03-17T02:42:31.753Z,5.93
2023-03-17T02:43:31.808Z,5.93
2023-03-17T02:44:31.782Z,5.95
2023-03-17T02:45:31.773Z,5.95
2023-03-17T02:46:31.738Z,5.96
2023-03-17T02:47:31.810Z,5.96
2023-03-17T02:48:31.688Z,5.93
2023-03-17T02:49:31.759Z,5.95
2023-03-17T02:50:32.082Z,5.95
2023-03-17T02:51:31.698Z,5.95
2023-03-17T02:52:31.676Z,5.95
2023-03-17T02:53:31.673Z,5.95
2023-03-17T02:54:31.647Z,5.93
2023-03-17T02:55:31.660Z,5.95
2023-03-17T02:56:31.638Z,5.95
2023-03-17T02:57:31.633Z,5.95
2023-03-17T02:58:31.582Z,5.95
2023-03-17T02:59:31.620Z,5.92
2023-03-17T03:00:32.047Z,5.93
2023-03-17T03:01:31.646Z,5.91
2023-03-17T03:02:31.598Z,5.91
2023-03-17T03:03:31.577Z,5.91
2023-03-17T03:04:31.578Z,5.89
2023-03-17T03:05:31.595Z,5.88
2023-03-17T03:06:31.536Z,5.85
2023-03-17T03:07:31.520Z,5.86
2023-03-17T03:08:31.495Z,5.83
2023-03-17T03:09:31.504Z,5.85
2023-03-17T03:10:32.020Z,5.81
2023-03-17T03:11:31.491Z,5.75
2023-03-17T03:12:31.466Z,5.75
2023-03-17T03:13:31.457Z,5.75
2023-03-17T03:14:31.478Z,5.73
2023-03-17T03:15:31.459Z,5.71
2023-03-17T03:16:31.403Z,5.68
2023-03-17T03:17:31.388Z,5.67
2023-03-17T03:18:31.377Z,5.66
2023-03-17T03:19:31.419Z,5.64
2023-03-17T03:20:31.687Z,5.63
2023-03-17T03:21:31.348Z,5.60
2023-03-17T03:22:31.384Z,5.59
2023-03-17T03:23:31.325Z,5.56
2023-03-17T03:24:31.300Z,5.55
2023-03-17T03:25:31.328Z,5.52
2023-03-17T03:26:31.305Z,5.49
2023-03-17T03:27:31.293Z,5.46
2023-03-17T03:28:31.247Z,5.45
2023-03-17T03:29:31.279Z,5.43
2023-03-17T03:30:31.570Z,5.41
2023-03-17T03:31:31.294Z,5.38
2023-03-17T03:32:31.227Z,5.35
2023-03-17T03:33:31.238Z,5.35
2023-03-17T03:34:31.191Z,5.35
2023-03-17T03:35:31.301Z,5.35
2023-03-17T03:36:31.201Z,5.37
2023-03-17T03:37:31.191Z,5.38
2023-03-17T03:38:31.149Z,5.37
2023-03-17T03:39:31.192Z,5.35
2023-03-17T03:40:31.642Z,5.37
2023-03-17T03:41:31.130Z,5.38
2023-03-17T03:42:31.096Z,5.35
2023-03-17T03:43:31.109Z,5.37
2023-03-17T03:44:31.091Z,5.35
2023-03-17T03:45:31.120Z,5.32
2023-03-17T03:46:31.190Z,5.31
2023-03-17T03:47:31.074Z,5.28
2023-03-17T03:48:31.040Z,5.27
2023-03-17T03:49:31.044Z,5.25
2023-03-17T03:50:31.313Z,5.20
2023-03-17T03:51:31.036Z,5.20
2023-03-17T03:52:30.991Z,5.17
2023-03-17T03:53:31.013Z,5.16
2023-03-17T03:54:30.955Z,5.14
2023-03-17T03:55:30.989Z,5.16
2023-03-17T03:56:30.963Z,5.14
2023-03-17T03:57:30.992Z,5.14
2023-03-17T03:58:30.917Z,5.14
2023-03-17T03:59:30.942Z,5.13
2023-03-17T04:00:31.191Z,5.14
2023-03-17T04:01:31.391Z,5.14
2023-03-17T04:02:30.935Z,5.14
2023-03-17T04:03:30.884Z,5.16
2023-03-17T04:04:30.900Z,5.13
2023-03-17T04:05:30.907Z,5.14
2023-03-17T04:06:30.857Z,5.14
2023-03-17T04:07:30.855Z,5.14
2023-03-17T04:08:30.794Z,5.17
2023-03-17T04:09:30.814Z,5.20
2023-03-17T04:10:30.992Z,5.22
2023-03-17T04:11:30.785Z,5.25
2023-03-17T04:12:30.775Z,5.31
2023-03-17T04:13:30.768Z,5.32
2023-03-17T04:14:31.437Z,5.34
2023-03-17T04:15:30.741Z,5.35
2023-03-17T04:16:30.764Z,5.38
2023-03-17T04:17:30.713Z,5.43
2023-03-17T04:18:30.722Z,5.46
2023-03-17T04:19:30.698Z,5.48
2023-03-17T04:20:30.860Z,5.50
2023-03-17T04:21:30.695Z,5.52
2023-03-17T04:22:30.637Z,5.55
2023-03-17T04:23:30.660Z,5.56
2023-03-17T04:24:30.618Z,5.57
2023-03-17T04:25:30.641Z,5.57
2023-03-17T04:26:30.655Z,5.60
2023-03-17T04:27:30.623Z,5.59
2023-03-17T04:28:30.594Z,5.57
2023-03-17T04:29:30.612Z,5.57
2023-03-17T04:30:30.763Z,5.59
2023-03-17T04:31:30.604Z,5.57
2023-03-17T04:32:30.559Z,5.59
2023-03-17T04:33:30.551Z,5.57
2023-03-17T04:34:30.513Z,5.59
2023-03-17T04:35:30.558Z,5.59
2023-03-17T04:36:30.519Z,5.59
2023-03-17T04:37:32.300Z,5.59
2023-03-17T04:38:30.461Z,5.56
2023-03-17T04:39:30.473Z,5.57
2023-03-17T04:40:30.688Z,5.57
2023-03-17T04:41:30.487Z,5.56
2023-03-17T04:42:30.421Z,5.59
2023-03-17T04:43:30.445Z,5.56
2023-03-17T04:44:30.397Z,5.55
2023-03-17T04:45:30.437Z,5.56
2023-03-17T04:46:30.393Z,5.56
2023-03-17T04:47:30.390Z,5.53
2023-03-17T04:48:30.343Z,5.52
2023-03-17T04:49:30.387Z,5.52
2023-03-17T04:50:30.649Z,5.52
2023-03-17T04:51:30.366Z,5.49
2023-03-17T04:52:30.294Z,5.49
2023-03-17T04:53:30.316Z,5.46
2023-03-17T04:54:30.316Z,5.46
2023-03-17T04:55:30.296Z,5.46
2023-03-17T04:56:31.860Z,5.45
2023-03-17T04:57:30.290Z,5.45
2023-03-17T04:58:31.319Z,5.43
2023-03-17T04:59:30.268Z,5.41
2023-03-17T05:00:30.512Z,5.41
2023-03-17T05:01:30.227Z,5.41
2023-03-17T05:02:30.269Z,5.40
2023-03-17T05:03:30.209Z,5.40
2023-03-17T05:04:32.058Z,5.38
2023-03-17T05:05:30.177Z,5.37
2023-03-17T05:06:30.188Z,5.37
2023-03-17T05:07:32.683Z,5.34
2023-03-17T05:08:30.164Z,5.30
2023-03-17T05:09:30.109Z,5.30
2023-03-17T05:10:30.391Z,5.28
2023-03-17T05:11:30.129Z,5.23
2023-03-17T05:12:30.117Z,5.20
2023-03-17T05:13:30.079Z,5.17
2023-03-17T05:14:30.158Z,5.13
2023-03-17T05:15:30.052Z,5.09
2023-03-17T05:16:30.089Z,5.04
2023-03-17T05:17:30.021Z,5.02
2023-03-17T05:18:30.054Z,4.98
2023-03-17T05:19:30.026Z,4.94
2023-03-17T05:20:30.218Z,4.92
2023-03-17T05:21:29.984Z,4.88
2023-03-17T05:22:30.005Z,4.86
2023-03-17T05:23:29.977Z,4.84
2023-03-17T05:24:29.970Z,4.80
2023-03-17T05:25:29.947Z,4.83
2023-03-17T05:26:29.974Z,4.83
2023-03-17T05:27:29.948Z,4.79
2023-03-17T05:28:29.943Z,4.79
2023-03-17T05:29:29.902Z,4.77
2023-03-17T05:30:30.309Z,4.76
2023-03-17T05:31:29.899Z,4.75
2023-03-17T05:32:29.921Z,4.73
2023-03-17T05:33:29.861Z,4.73
2023-03-17T05:34:29.869Z,4.72
2023-03-17T05:35:29.854Z,4.72
2023-03-17T05:36:29.848Z,4.69
2023-03-17T05:37:29.843Z,4.65
2023-03-17T05:38:29.826Z,4.64
2023-03-17T05:39:29.801Z,4.62
2023-03-17T05:40:30.081Z,4.62
2023-03-17T05:41:29.772Z,4.61
2023-03-17T05:42:29.784Z,4.61
2023-03-17T05:43:29.759Z,4.62
2023-03-17T05:44:29.785Z,4.62
2023-03-17T05:45:29.715Z,4.64
2023-03-17T05:46:29.788Z,4.67
2023-03-17T05:47:29.712Z,4.65
2023-03-17T05:48:29.708Z,4.67
2023-03-17T05:49:29.723Z,4.69
2023-03-17T05:50:30.135Z,4.69
2023-03-17T05:51:29.710Z,4.70
2023-03-17T05:52:29.687Z,4.67
2023-03-17T05:53:30.611Z,4.69
2023-03-17T05:54:29.641Z,4.69
2023-03-17T05:55:29.614Z,4.67
2023-03-17T05:56:29.674Z,4.67
2023-03-17T05:57:29.603Z,4.69
2023-03-17T05:58:29.613Z,4.69
2023-03-17T05:59:29.556Z,4.70
2023-03-17T06:00:29.927Z,4.72
2023-03-17T06:01:29.602Z,4.73
2023-03-17T06:02:29.627Z,4.75
2023-03-17T06:03:29.547Z,4.77
2023-03-17T06:04:29.563Z,4.80
2023-03-17T06:05:29.575Z,4.84
2023-03-17T06:06:29.508Z,4.86
2023-03-17T06:07:41.332Z,4.91
2023-03-17T06:08:30.515Z,4.98
2023-03-17T06:09:29.451Z,5.01
2023-03-17T06:10:29.835Z,5.05
2023-03-17T06:11:29.438Z,5.09
2023-03-17T06:12:29.455Z,5.12
2023-03-17T06:13:29.410Z,5.17
2023-03-17T06:14:29.457Z,5.22
2023-03-17T06:15:29.799Z,5.23
2023-03-17T06:16:29.402Z,5.28
2023-03-17T06:17:29.368Z,5.31
2023-03-17T06:18:29.387Z,5.34
2023-03-17T06:19:29.391Z,5.35
2023-03-17T06:20:29.375Z,5.38
2023-03-17T06:21:29.324Z,5.40
2023-03-17T06:22:29.350Z,5.41
2023-03-17T06:23:30.080Z,5.43
2023-03-17T06:24:29.331Z,5.46
2023-03-17T06:25:29.711Z,5.50
2023-03-17T06:26:29.284Z,5.53
2023-03-17T06:27:29.258Z,5.56
2023-03-17T06:28:29.260Z,5.59
2023-03-17T06:29:29.240Z,5.60
2023-03-17T06:30:29.312Z,5.64
2023-03-17T06:31:29.341Z,5.68
2023-03-17T06:32:29.270Z,5.73
2023-03-17T06:33:29.190Z,5.75
2023-03-17T06:34:29.226Z,5.78
2023-03-17T06:35:29.477Z,5.81
2023-03-17T06:36:29.193Z,5.83
2023-03-17T06:37:29.127Z,5.89
2023-03-17T06:38:29.148Z,5.91
2023-03-17T06:39:29.112Z,5.93
2023-03-17T06:40:29.125Z,6.00
2023-03-17T06:41:29.136Z,6.03
2023-03-17T06:42:29.097Z,6.06
2023-03-17T06:43:29.105Z,6.07
2023-03-17T06:44:29.075Z,6.10
2023-03-17T06:45:29.351Z,6.13
2023-03-17T06:46:29.123Z,6.18
2023-03-17T06:47:29.058Z,6.25
2023-03-17T06:48:30.021Z,6.28
2023-03-17T06:49:30.243Z,6.30
2023-03-17T06:50:30.217Z,6.35
2023-03-17T06:51:29.786Z,6.35
2023-03-17T06:52:29.030Z,6.38
2023-03-17T06:53:29.023Z,6.43
2023-03-17T06:54:29.097Z,6.48
2023-03-17T06:55:29.612Z,6.44
2023-03-17T06:56:30.667Z,6.47
2023-03-17T06:57:29.366Z,6.48
2023-03-17T06:58:28.949Z,6.50
2023-03-17T06:59:28.930Z,6.56
2023-03-17T07:00:28.923Z,6.58
2023-03-17T07:01:29.689Z,6.59
2023-03-17T07:02:28.932Z,6.61
2023-03-17T07:03:30.311Z,6.63
2023-03-17T07:04:29.599Z,6.65
2023-03-17T07:05:30.327Z,6.71
2023-03-17T07:06:29.396Z,6.73
2023-03-17T07:07:29.992Z,6.79
2023-03-17T07:08:28.857Z,6.86
2023-03-17T07:09:28.784Z,6.94
2023-03-17T07:10:30.144Z,6.97
2023-03-17T07:11:29.565Z,7.04
2023-03-17T07:12:30.955Z,7.12
2023-03-17T07:13:29.277Z,7.17
2023-03-17T07:14:28.765Z,7.23
2023-03-17T07:15:30.498Z,7.26
2023-03-17T07:16:29.135Z,7.31
2023-03-17T07:17:28.691Z,7.34
2023-03-17T07:18:28.813Z,7.40
2023-03-17T07:19:30.176Z,7.41
2023-03-17T07:20:28.725Z,7.45
2023-03-17T07:21:28.709Z,7.49
2023-03-17T07:22:28.669Z,7.55
2023-03-17T07:23:28.625Z,7.59
2023-03-17T07:24:28.646Z,7.67
2023-03-17T07:25:28.967Z,7.72
2023-03-17T07:26:28.663Z,7.79
2023-03-17T07:27:28.622Z,7.87
2023-03-17T07:28:28.587Z,7.92
2023-03-17T07:29:28.554Z,7.94
2023-03-17T07:30:28.602Z,8.02
2023-03-17T07:31:28.727Z,8.04
2023-03-17T07:32:28.610Z,8.12
2023-03-17T07:33:28.557Z,8.17
2023-03-17T07:34:28.540Z,8.15
2023-03-17T07:35:28.535Z,8.14
2023-03-17T07:36:28.525Z,8.11
2023-03-17T07:37:28.477Z,8.14
2023-03-17T07:38:28.500Z,8.17
2023-03-17T07:39:28.464Z,8.26
2023-03-17T07:40:28.501Z,8.29
2023-03-17T07:41:28.454Z,8.32
2023-03-17T07:42:28.432Z,8.37
2023-03-17T07:43:28.389Z,8.45
2023-03-17T07:44:28.399Z,8.50
2023-03-17T07:45:28.624Z,8.54
2023-03-17T07:46:28.441Z,8.55
2023-03-17T07:47:28.393Z,8.60
2023-03-17T07:48:28.368Z,8.63
2023-03-17T07:49:40.767Z,8.66
2023-03-17T07:50:29.461Z,8.72
2023-03-17T07:51:28.364Z,8.78
2023-03-17T07:52:28.340Z,8.83
2023-03-17T07:53:28.303Z,8.84
2023-03-17T07:54:28.304Z,8.90
2023-03-17T07:55:28.272Z,8.99
2023-03-17T07:56:28.272Z,9.02
2023-03-17T07:57:28.307Z,9.06
2023-03-17T07:58:28.248Z,9.06
2023-03-17T07:59:28.207Z,9.06
2023-03-17T08:00:28.231Z,9.12
2023-03-17T08:01:28.213Z,9.20
2023-03-17T08:02:28.252Z,9.23
2023-03-17T08:03:28.230Z,9.21
2023-03-17T08:04:28.236Z,9.20
2023-03-17T08:05:28.178Z,9.21
2023-03-17T08:06:28.153Z,9.28
2023-03-17T08:07:28.127Z,9.27
2023-03-17T08:08:28.180Z,9.30
2023-03-17T08:09:28.104Z,9.32
2023-03-17T08:10:28.115Z,9.40
2023-03-17T08:11:29.466Z,9.43
2023-03-17T08:12:28.090Z,9.48
2023-03-17T08:13:28.085Z,9.56
2023-03-17T08:14:28.079Z,9.58
2023-03-17T08:15:28.082Z,9.63
2023-03-17T08:16:28.092Z,9.68
2023-03-17T08:17:28.040Z,9.71
2023-03-17T08:18:28.023Z,9.78
2023-03-17T08:19:28.044Z,9.82
2023-03-17T08:20:28.012Z,9.81
2023-03-17T08:21:28.026Z,9.83
2023-03-17T08:22:27.986Z,9.86
2023-03-17T08:23:27.951Z,9.88
2023-03-17T08:24:27.943Z,9.94
2023-03-17T08:25:27.944Z,9.99
2023-03-17T08:26:27.971Z,10.01
2023-03-17T08:27:27.920Z,9.99
2023-03-17T08:28:28.002Z,10.00
2023-03-17T08:29:27.988Z,10.04
2023-03-17T08:30:32.818Z,10.00
2023-03-17T08:31:27.969Z,10.03
2023-03-17T08:32:27.959Z,10.07
2023-03-17T08:33:27.859Z,10.10
2023-03-17T08:34:27.883Z,10.10
2023-03-17T08:35:27.864Z,10.12
2023-03-17T08:36:27.816Z,10.10
2023-03-17T08:37:27.789Z,10.12
2023-03-17T08:38:27.818Z,10.15
2023-03-17T08:39:27.797Z,10.17
2023-03-17T08:40:27.985Z,10.22
2023-03-17T08:41:27.753Z,10.24
2023-03-17T08:42:27.764Z,10.26
2023-03-17T08:43:27.747Z,10.24
2023-03-17T08:44:27.768Z,10.22
2023-03-17T08:45:27.723Z,10.25
2023-03-17T08:46:27.730Z,10.25
2023-03-17T08:47:27.705Z,10.26
2023-03-17T08:48:27.713Z,10.30
2023-03-17T08:49:27.682Z,10.28
2023-03-17T08:50:27.783Z,10.28
2023-03-17T08:51:27.630Z,10.32
2023-03-17T08:52:27.648Z,10.37
2023-03-17T08:53:27.612Z,10.40
2023-03-17T08:54:27.644Z,10.44
2023-03-17T08:55:27.631Z,10.51
2023-03-17T08:56:27.612Z,10.53
2023-03-17T08:57:27.582Z,10.47
2023-03-17T08:58:27.582Z,10.47
2023-03-17T08:59:27.545Z,10.51
2023-03-17T09:00:27.610Z,10.55
2023-03-17T09:01:27.702Z,10.59
2023-03-17T09:02:27.632Z,10.65
2023-03-17T09:03:27.519Z,10.66
2023-03-17T09:04:27.528Z,10.71
2023-03-17T09:05:27.475Z,10.73
2023-03-17T09:06:27.552Z,10.76
2023-03-17T09:07:27.489Z,10.78
2023-03-17T09:08:27.496Z,10.74
2023-03-17T09:09:27.437Z,10.80
2023-03-17T09:10:28.237Z,10.86
2023-03-17T09:11:27.431Z,10.86
2023-03-17T09:12:27.448Z,10.86
2023-03-17T09:13:27.489Z,10.89
2023-03-17T09:14:27.436Z,10.92
2023-03-17T09:15:27.419Z,10.92
2023-03-17T09:16:27.422Z,10.92
2023-03-17T09:17:27.391Z,10.98
2023-03-17T09:18:27.350Z,11.01
2023-03-17T09:19:27.353Z,11.06
2023-03-17T09:20:27.315Z,11.13
2023-03-17T09:21:27.377Z,11.17
2023-03-17T09:22:27.358Z,11.19
2023-03-17T09:23:27.430Z,11.27
2023-03-17T09:24:27.279Z,11.34
2023-03-17T09:25:27.313Z,11.36
2023-03-17T09:26:27.243Z,11.44
2023-03-17T09:27:27.281Z,11.50
2023-03-17T09:28:27.255Z,11.54
2023-03-17T09:29:27.276Z,11.59
2023-03-17T09:30:27.196Z,11.65
2023-03-17T09:31:27.258Z,11.71
2023-03-17T09:32:27.244Z,11.78
2023-03-17T09:33:27.281Z,11.80
2023-03-17T09:34:27.178Z,11.86
2023-03-17T09:35:27.173Z,11.87
2023-03-17T09:36:27.116Z,11.96
2023-03-17T09:37:27.167Z,12.01
2023-03-17T09:38:27.122Z,12.04
2023-03-17T09:39:27.126Z,12.06
2023-03-17T09:40:28.538Z,12.08
2023-03-17T09:41:27.131Z,12.13
2023-03-17T09:42:27.065Z,12.16
2023-03-17T09:43:27.079Z,12.23
2023-03-17T09:44:27.083Z,12.23
2023-03-17T09:45:27.071Z,12.26
2023-03-17T09:46:27.176Z,12.29
2023-03-17T09:47:27.031Z,12.33
2023-03-17T09:48:26.991Z,12.37
2023-03-17T09:49:27.039Z,12.41
2023-03-17T09:50:26.978Z,12.41
2023-03-17T09:51:26.990Z,12.46
2023-03-17T09:52:26.969Z,12.48
2023-03-17T09:53:27.012Z,12.51
2023-03-17T09:54:26.943Z,12.51
2023-03-17T09:55:26.951Z,12.57
2023-03-17T09:56:26.912Z,12.63
2023-03-17T09:57:26.938Z,12.66
2023-03-17T09:58:26.897Z,12.71
2023-03-17T09:59:26.918Z,12.77
2023-03-17T10:00:26.873Z,12.85
2023-03-17T10:01:26.944Z,12.81
2023-03-17T10:02:26.875Z,12.87
2023-03-17T10:03:26.876Z,12.88
2023-03-17T10:04:26.825Z,12.93
2023-03-17T10:05:26.933Z,12.95
2023-03-17T10:06:26.806Z,12.99
2023-03-17T10:07:26.807Z,13.02
2023-03-17T10:08:31.613Z,12.99
2023-03-17T10:09:27.823Z,13.00
2023-03-17T10:10:26.786Z,13.02
2023-03-17T10:11:26.770Z,13.06
2023-03-17T10:12:26.726Z,13.09
2023-03-17T10:13:26.778Z,13.02
2023-03-17T10:14:26.705Z,13.04
2023-03-17T10:15:26.767Z,13.06
2023-03-17T10:16:26.797Z,13.03
2023-03-17T10:17:26.709Z,13.03
2023-03-17T10:18:26.673Z,13.06
2023-03-17T10:19:26.669Z,13.12
2023-03-17T10:20:26.669Z,13.20
2023-03-17T10:21:26.654Z,13.24
2023-03-17T10:22:26.630Z,13.27
2023-03-17T10:23:26.633Z,13.29
2023-03-17T10:24:26.604Z,13.25
2023-03-17T10:25:26.611Z,13.30
2023-03-17T10:26:26.582Z,13.33
2023-03-17T10:27:26.633Z,13.36
2023-03-17T10:28:26.560Z,13.40
2023-03-17T10:29:27.515Z,13.44
2023-03-17T10:30:26.543Z,13.46
2023-03-17T10:31:26.605Z,13.51
2023-03-17T10:32:26.553Z,13.52
2023-03-17T10:33:26.529Z,13.52
2023-03-17T10:34:26.504Z,13.55
2023-03-17T10:35:26.536Z,13.56
2023-03-17T10:36:26.490Z,13.58
2023-03-17T10:37:26.484Z,13.59
2023-03-17T10:38:26.446Z,13.62
2023-03-17T10:39:26.446Z,13.59
2023-03-17T10:40:26.439Z,13.61
2023-03-17T10:41:26.443Z,13.62
2023-03-17T10:42:26.419Z,13.61
2023-03-17T10:43:26.408Z,13.63
2023-03-17T10:44:26.395Z,13.65
2023-03-17T10:45:26.385Z,13.63
2023-03-17T10:46:26.468Z,13.63
2023-03-17T10:47:26.369Z,13.65
2023-03-17T10:48:26.393Z,13.69
2023-03-17T10:49:26.329Z,13.73
2023-03-17T10:50:26.308Z,13.71
2023-03-17T10:51:26.343Z,13.76
2023-03-17T10:52:26.298Z,13.76
2023-03-17T10:53:26.281Z,13.76
2023-03-17T10:54:26.260Z,13.80
2023-03-17T10:55:26.263Z,13.81
2023-03-17T10:56:26.264Z,13.84
2023-03-17T10:57:27.211Z,13.87
2023-03-17T10:58:26.243Z,13.91
2023-03-17T10:59:26.286Z,13.96
2023-03-17T11:00:26.190Z,14.04
2023-03-17T11:01:26.319Z,14.09
2023-03-17T11:02:26.165Z,14.10
2023-03-17T11:03:26.188Z,14.09
2023-03-17T11:04:26.146Z,14.14
2023-03-17T11:05:26.170Z,14.19
2023-03-17T11:06:26.141Z,14.24
2023-03-17T11:07:26.140Z,14.27
2023-03-17T11:08:26.124Z,14.28
2023-03-17T11:09:26.107Z,14.28
2023-03-17T11:10:26.089Z,14.29
2023-03-17T11:11:26.109Z,14.31
2023-03-17T11:12:26.073Z,14.31
2023-03-17T11:13:26.103Z,14.31
2023-03-17T11:14:26.056Z,14.35
2023-03-17T11:15:26.049Z,14.35
2023-03-17T11:16:26.074Z,14.39
2023-03-17T11:17:26.023Z,14.44
2023-03-17T11:18:26.008Z,14.44
2023-03-17T11:19:26.008Z,14.46
2023-03-17T11:20:25.977Z,14.46
2023-03-17T11:21:25.992Z,14.47
2023-03-17T11:22:25.942Z,14.49
2023-03-17T11:23:25.959Z,14.49
2023-03-17T11:24:25.970Z,14.47
2023-03-17T11:25:25.931Z,14.53
2023-03-17T11:26:25.920Z,14.56
2023-03-17T11:27:25.918Z,14.65
2023-03-17T11:28:25.907Z,14.65
2023-03-17T11:29:25.927Z,14.67
2023-03-17T11:30:25.862Z,14.71
2023-03-17T11:31:25.874Z,14.74
2023-03-17T11:32:25.870Z,14.74
2023-03-17T11:33:25.851Z,14.80
2023-03-17T11:34:25.825Z,14.80
2023-03-17T11:35:25.835Z,14.83
2023-03-17T11:36:25.882Z,14.84
2023-03-17T11:37:25.816Z,14.83
2023-03-17T11:38:25.765Z,14.84
2023-03-17T11:39:25.786Z,14.84
2023-03-17T11:40:25.773Z,14.81
2023-03-17T11:41:25.762Z,14.83
2023-03-17T11:42:25.733Z,14.83
2023-03-17T11:43:25.743Z,14.86
2023-03-17T11:44:25.709Z,14.86
2023-03-17T11:45:25.707Z,14.87
2023-03-17T11:46:25.709Z,14.90
2023-03-17T11:47:25.696Z,14.90
2023-03-17T11:48:25.790Z,14.93
2023-03-17T11:49:25.675Z,14.98
2023-03-17T11:50:25.636Z,15.02
2023-03-17T11:51:25.636Z,15.02
2023-03-17T11:52:25.601Z,15.03
2023-03-17T11:53:25.638Z,15.03
2023-03-17T11:54:25.594Z,15.05
2023-03-17T11:55:25.601Z,15.02
2023-03-17T11:56:25.566Z,15.06
2023-03-17T11:57:25.601Z,15.09
2023-03-17T11:58:25.550Z,15.13
2023-03-17T11:59:25.553Z,15.12
2023-03-17T12:00:25.524Z,15.15
2023-03-17T12:01:25.544Z,15.15
2023-03-17T12:02:25.508Z,15.12
2023-03-17T12:03:25.531Z,15.12
2023-03-17T12:04:25.487Z,15.13
2023-03-17T12:05:25.496Z,15.13
2023-03-17T12:06:25.429Z,15.15
2023-03-17T12:07:25.469Z,15.15
2023-03-17T12:08:25.442Z,15.13
2023-03-17T12:09:25.420Z,15.13
2023-03-17T12:10:25.424Z,15.17
2023-03-17T12:11:25.402Z,15.17
2023-03-17T12:12:25.391Z,15.17
2023-03-17T12:13:25.381Z,15.21
2023-03-17T12:14:25.350Z,15.19
2023-03-17T12:15:25.413Z,15.15
2023-03-17T12:16:25.342Z,15.20
2023-03-17T12:17:26.992Z,15.20
2023-03-17T12:18:25.301Z,15.24
2023-03-17T12:19:25.323Z,15.26
2023-03-17T12:20:25.284Z,15.26
2023-03-17T12:21:25.294Z,15.28
2023-03-17T12:22:25.275Z,15.28
2023-03-17T12:23:25.267Z,15.27
2023-03-17T12:24:25.233Z,15.27
2023-03-17T12:25:25.261Z,15.30
2023-03-17T12:26:25.235Z,15.28
2023-03-17T12:27:25.262Z,15.30
2023-03-17T12:28:25.206Z,15.31
2023-03-17T12:29:25.241Z,15.33
2023-03-17T12:30:25.172Z,15.31
2023-03-17T12:31:25.229Z,15.35
2023-03-17T12:32:25.170Z,15.36
2023-03-17T12:33:25.179Z,15.36
2023-03-17T12:34:26.597Z,15.35
2023-03-17T12:35:25.136Z,15.36
2023-03-17T12:36:25.112Z,15.35
2023-03-17T12:37:25.116Z,15.35
2023-03-17T12:38:25.102Z,15.38
2023-03-17T12:39:25.098Z,15.39
2023-03-17T12:40:26.190Z,15.41
2023-03-17T12:41:25.092Z,15.38
2023-03-17T12:42:25.091Z,15.38
2023-03-17T12:43:25.066Z,15.42
2023-03-17T12:44:25.038Z,15.41
2023-03-17T12:45:25.514Z,15.41
2023-03-17T12:46:25.048Z,15.43
2023-03-17T12:47:25.034Z,15.43
2023-03-17T12:48:24.992Z,15.41
2023-03-17T12:49:24.996Z,15.42
2023-03-17T12:50:24.953Z,15.39
2023-03-17T12:51:24.973Z,15.42
2023-03-17T12:52:24.980Z,15.43
2023-03-17T12:53:24.991Z,15.42
2023-03-17T12:54:24.894Z,15.43
2023-03-17T12:55:24.953Z,15.41
2023-03-17T12:56:24.861Z,15.41
2023-03-17T12:57:26.366Z,15.42
2023-03-17T12:58:26.461Z,15.39
2023-03-17T12:59:24.854Z,15.39
2023-03-17T13:00:24.829Z,15.41
2023-03-17T13:01:24.917Z,15.42
2023-03-17T13:02:24.806Z,15.42
2023-03-17T13:03:24.950Z,15.43
2023-03-17T13:04:27.023Z,15.42
2023-03-17T13:05:24.796Z,15.42
2023-03-17T13:06:24.795Z,15.41
2023-03-17T13:07:25.535Z,15.39
2023-03-17T13:08:24.772Z,15.42
2023-03-17T13:09:24.755Z,15.42